Time;durP1;ratioP1;P1;durP2;ratioP2;P2;SDS_P1;SDS_P2;PMS_P1;PMS_P2;Temp;Humidity;BMP_temperature;BMP_pressure;BME280_temperature;BME280_humidity;BME280_pressure;Samples;Min_cycle;Max_cycle;Signal;HPM_P1;HPM_P2
2022/08/20 00:01:58;;;;;;;10.40;5.40;;;;;;;29.54;51.04;101034.72;1792701;80;21018;-51
2022/08/20 00:04:24;;;;;;;8.30;5.45;;;;;;;29.53;50.96;101031.19;1793005;80;21005;-55
2022/08/20 00:06:51;;;;;;;5.97;5.22;;;;;;;29.53;50.91;101041.91;1792713;80;20992;-52
2022/08/20 00:09:18;;;;;;;7.97;5.37;;;;;;;29.52;51.04;101042.92;1792713;80;21026;-50
2022/08/20 00:11:45;;;;;;;10.78;5.92;;;;;;;29.51;51.05;101040.40;1793065;80;21483;-50
2022/08/20 00:14:12;;;;;;;6.85;5.65;;;;;;;29.50;51.12;101040.03;1792775;80;21002;-49
2022/08/20 00:16:39;;;;;;;7.15;5.53;;;;;;;29.50;51.23;101044.05;1792696;80;21010;-52
2022/08/20 00:19:07;;;;;;;8.55;5.78;;;;;;;29.49;51.38;101045.06;1792900;80;20986;-49
2022/08/20 00:21:35;;;;;;;10.70;5.95;;;;;;;29.48;51.43;101046.04;1792668;80;21034;-51
2022/08/20 00:24:03;;;;;;;13.65;5.92;;;;;;;29.45;51.32;101046.35;1783257;80;21515;-49
2022/08/20 00:26:29;;;;;;;8.63;5.50;;;;;;;29.43;51.35;101043.80;1790807;80;21490;-51
2022/08/20 00:28:56;;;;;;;10.60;5.95;;;;;;;29.40;51.53;101040.57;1793115;80;21050;-49
2022/08/20 00:31:23;;;;;;;6.70;5.70;;;;;;;29.38;51.62;101051.94;1789508;80;21062;-50
2022/08/20 00:33:50;;;;;;;9.50;5.75;;;;;;;29.36;51.67;101050.75;1787909;80;21017;-49
2022/08/20 00:36:17;;;;;;;6.10;5.50;;;;;;;29.34;51.82;101049.20;1787877;80;21018;-52
2022/08/20 00:38:45;;;;;;;8.98;5.75;;;;;;;29.33;51.94;101048.34;1788005;80;21463;-51
2022/08/20 00:41:16;;;;;;;6.62;5.60;;;;;;;29.32;51.99;101048.50;1787508;80;21046;-52
2022/08/20 00:43:49;;;;;;;;;;;;;;;29.30;52.09;101055.36;1708492;83;21069;-51
2022/08/20 00:46:20;;;;;;;8.93;5.90;;;;;;;29.30;52.09;101050.48;1682896;85;20137;-50
2022/08/20 00:48:50;;;;;;;;;;;;;;;29.28;52.18;101046.63;1649972;86;21082;-49
2022/08/20 00:51:37;;;;;;;11.57;6.20;;;;;;;29.28;52.39;101041.75;1609009;88;20112;-50
2022/08/20 00:54:12;;;;;;;9.43;5.90;;;;;;;29.25;52.46;101036.66;1646827;86;21069;-50
2022/08/20 00:56:39;;;;;;;9.33;5.65;;;;;;;29.25;52.50;101044.70;1643187;87;21067;-51
2022/08/20 00:59:10;;;;;;;12.53;6.72;;;;;;;29.23;52.45;101046.69;1636353;87;21062;-51
2022/08/20 01:01:39;;;;;;;12.00;6.30;;;;;;;29.22;52.59;101047.70;1649828;86;21074;-49
2022/08/20 01:04:05;;;;;;;9.28;5.75;;;;;;;29.21;52.73;101053.54;1632663;87;21051;-53
2022/08/20 01:06:32;;;;;;;11.83;6.50;;;;;;;29.22;52.88;101058.41;1679385;85;21050;-48
2022/08/20 01:09:01;;;;;;;10.85;6.08;;;;;;;29.22;52.89;101058.41;1642243;86;21524;-49
2022/08/20 01:11:35;;;;;;;7.20;6.40;;;;;;;29.22;52.85;101061.09;1681532;85;21091;-54
2022/08/20 01:16:55;;;;;;;10.03;5.85;;;;;;;29.20;52.94;101061.73;1630651;87;21106;-50
2022/08/20 01:19:30;;;;;;;7.80;6.00;;;;;;;29.20;52.90;101061.25;1630473;87;21094;-51
2022/08/20 01:21:59;;;;;;;7.60;5.95;;;;;;;29.19;52.84;101051.98;1609266;87;21071;-49
2022/08/20 01:24:36;;;;;;;10.70;5.87;;;;;;;29.18;52.87;101048.98;1679509;85;21014;-52
2022/08/20 01:27:04;;;;;;;8.33;6.20;;;;;;;29.19;53.01;101050.65;1637898;86;21062;-51
2022/08/20 01:29:37;;;;;;;13.58;5.85;;;;;;;29.14;53.12;101054.25;1634670;87;21053;-52
2022/08/20 01:32:04;;;;;;;11.10;6.15;;;;;;;29.12;53.26;101049.52;1607910;89;21151;-51
2022/08/20 01:34:32;;;;;;;8.65;5.78;;;;;;;29.10;53.35;101046.15;1598217;89;21084;-48
2022/08/20 01:36:59;;;;;;;7.58;6.30;;;;;;;29.08;53.45;101050.81;1637944;87;21526;-49
2022/08/20 01:39:32;;;;;;;9.33;6.30;;;;;;;29.06;53.51;101040.73;1637946;87;21042;-50
2022/08/20 01:42:26;;;;;;;10.00;6.47;;;;;;;29.04;53.60;101041.37;1650092;85;21058;-51
2022/08/20 01:44:53;;;;;;;9.10;6.25;;;;;;;29.02;53.61;101056.75;1648878;86;21061;-51
2022/08/20 01:47:26;;;;;;;9.48;6.75;;;;;;;29.00;53.70;101048.00;1660484;86;21005;-52
2022/08/20 01:50:00;;;;;;;11.75;6.37;;;;;;;28.97;53.78;101041.09;1693228;85;21043;-50
2022/08/20 01:53:03;;;;;;;8.90;6.58;;;;;;;28.96;53.88;101046.94;1693445;85;21084;-49
2022/08/20 01:55:31;;;;;;;15.50;7.05;;;;;;;28.97;53.93;101048.61;1691726;85;21035;-48
2022/08/20 01:57:58;;;;;;;12.28;6.65;;;;;;;28.98;54.08;101052.14;1693925;85;21099;-50
2022/08/20 02:00:25;;;;;;;9.18;7.45;;;;;;;28.98;54.13;101057.02;1688652;85;21507;-49
2022/08/20 02:02:52;;;;;;;10.08;6.50;;;;;;;28.98;54.16;101055.67;1693891;85;21082;-49
2022/08/20 02:05:19;;;;;;;20.17;8.05;;;;;;;28.96;54.30;101059.00;1693509;85;21094;-51
2022/08/20 02:07:46;;;;;;;8.30;6.47;;;;;;;28.95;54.48;101061.31;1694241;85;21107;-49
2022/08/20 02:10:14;;;;;;;9.18;6.65;;;;;;;28.94;54.60;101056.95;1693984;85;21039;-51
2022/08/20 02:12:41;;;;;;;10.85;6.65;;;;;;;28.94;54.65;101058.30;1693854;85;21023;-51
2022/08/20 02:15:10;;;;;;;11.40;6.90;;;;;;;28.93;54.55;101060.61;1694131;84;21438;-50
2022/08/20 02:17:37;;;;;;;14.43;7.15;;;;;;;28.91;54.54;101053.20;1693730;85;21072;-51
2022/08/20 02:20:09;;;;;;;13.08;7.00;;;;;;;28.91;54.62;101052.39;1693928;85;21551;-49
2022/08/20 02:22:52;;;;;;;14.70;6.87;;;;;;;28.89;54.68;101049.83;1694230;85;21035;-53
2022/08/20 02:25:21;;;;;;;9.90;6.83;;;;;;;28.87;54.83;101051.81;1693968;85;21583;-50
2022/08/20 02:27:48;;;;;;;8.58;6.85;;;;;;;28.83;54.80;101047.72;1694091;85;21515;-50
2022/08/20 02:30:19;;;;;;;9.58;6.83;;;;;;;28.81;54.78;101047.02;1693882;85;21079;-50
2022/08/20 02:32:46;;;;;;;7.33;6.62;;;;;;;28.80;54.76;101048.03;1685247;85;21547;-54
2022/08/20 02:35:13;;;;;;;11.50;7.28;;;;;;;28.78;54.81;101054.02;1729999;80;21022;-51
2022/08/20 02:37:42;;;;;;;9.40;6.83;;;;;;;28.76;54.80;101057.34;1785610;80;21011;-55
2022/08/20 02:40:13;;;;;;;14.65;7.17;;;;;;;28.75;54.77;101063.66;1787373;80;21017;-49
2022/08/20 02:42:41;;;;;;;9.83;7.03;;;;;;;28.74;54.55;101066.02;1787311;80;21022;-48
2022/08/20 02:45:14;;;;;;;8.60;6.90;;;;;;;28.74;54.49;101063.81;1787391;80;21086;-51
2022/08/20 02:47:45;;;;;;;8.88;6.87;;;;;;;28.71;54.36;101058.24;1787712;80;21004;-48
2022/08/20 02:50:16;;;;;;;10.15;7.33;;;;;;;28.68;54.23;101057.20;1787768;80;20990;-49
2022/08/20 02:52:43;;;;;;;11.90;7.78;;;;;;;28.66;54.32;101052.48;1787822;80;20939;-52
2022/08/20 02:55:10;;;;;;;11.95;7.58;;;;;;;28.65;54.35;101050.78;1787280;80;21011;-48
2022/08/20 02:57:38;;;;;;;8.65;6.60;;;;;;;28.62;54.40;101057.77;1787647;80;21013;-52
2022/08/20 03:00:10;;;;;;;9.75;6.97;;;;;;;28.63;54.38;101060.78;1787503;80;21018;-48
2022/08/20 03:02:37;;;;;;;9.75;7.62;;;;;;;28.63;54.37;101063.95;1726423;83;21038;-48
2022/08/20 03:05:05;;;;;;;12.88;6.97;;;;;;;28.62;54.32;101065.81;1726781;83;21090;-52
2022/08/20 03:07:41;;;;;;;12.10;6.85;;;;;;;28.61;54.41;101069.45;1725754;83;21044;-53
2022/08/20 03:10:09;;;;;;;8.50;6.22;;;;;;;28.59;54.43;101070.09;1693325;84;21518;-51
2022/08/20 03:12:37;;;;;;;6.55;5.95;;;;;;;28.58;54.35;101068.91;1706462;84;21514;-50
2022/08/20 03:15:06;;;;;;;7.83;6.70;;;;;;;28.57;54.26;101073.89;1705498;84;21082;-50
2022/08/20 03:17:33;;;;;;;14.07;7.12;;;;;;;28.55;54.30;101069.98;1705101;84;21522;-50
2022/08/20 03:19:59;;;;;;;9.95;6.85;;;;;;;28.56;54.25;101074.89;1704664;84;21022;-50
2022/08/20 03:22:26;;;;;;;9.13;6.87;;;;;;;28.54;54.06;101074.98;1702710;84;21037;-51
2022/08/20 03:24:53;;;;;;;10.53;7.20;;;;;;;28.53;54.11;101079.99;1690557;84;21515;-49
2022/08/20 03:27:20;;;;;;;10.48;6.58;;;;;;;28.52;54.12;101082.30;1706235;84;21058;-49
2022/08/20 03:29:48;;;;;;;11.50;7.15;;;;;;;28.51;54.01;101078.44;1705574;84;21060;-49
2022/08/20 03:32:14;;;;;;;8.45;6.95;;;;;;;28.48;53.98;101077.39;1701695;84;21063;-49
2022/08/20 03:34:41;;;;;;;11.43;7.50;;;;;;;28.46;53.96;101070.81;1699584;84;21066;-49
2022/08/20 03:37:10;;;;;;;11.12;6.53;;;;;;;28.44;53.95;101067.44;1699277;84;21015;-49
2022/08/20 03:39:38;;;;;;;8.68;6.30;;;;;;;28.42;54.01;101072.09;1699708;84;21087;-48
2022/08/20 03:42:05;;;;;;;8.23;7.08;;;;;;;28.42;53.98;101072.60;1700122;84;20990;-49
2022/08/20 03:44:32;;;;;;;7.62;6.70;;;;;;;28.41;54.00;101072.23;1699941;84;21070;-51
2022/08/20 03:46:59;;;;;;;9.88;6.95;;;;;;;28.41;54.02;101074.42;1688685;84;21051;-51
2022/08/20 03:49:25;;;;;;;7.37;6.35;;;;;;;28.40;54.01;101082.09;1700923;84;21066;-49
2022/08/20 03:51:52;;;;;;;7.65;6.22;;;;;;;28.40;54.15;101082.09;1700208;84;21095;-50
2022/08/20 03:54:19;;;;;;;10.90;7.55;;;;;;;28.39;54.09;101083.09;1700155;84;21042;-51
2022/08/20 03:56:46;;;;;;;11.55;6.75;;;;;;;28.38;54.17;101081.90;1700978;84;21529;-50
2022/08/20 03:59:13;;;;;;;9.50;6.90;;;;;;;28.38;54.09;101082.72;1701288;84;21047;-50
2022/08/20 04:01:39;;;;;;;9.68;6.78;;;;;;;28.38;54.09;101082.72;1694623;84;21026;-48
2022/08/20 04:04:06;;;;;;;8.75;6.20;;;;;;;28.39;54.02;101083.09;1701269;83;21173;-51
2022/08/20 04:06:33;;;;;;;8.98;6.60;;;;;;;28.38;53.94;101084.05;1709917;84;21090;-50
2022/08/20 04:09:00;;;;;;;8.40;6.40;;;;;;;28.38;53.90;101088.07;1779021;80;21031;-50
2022/08/20 04:11:26;;;;;;;7.70;6.90;;;;;;;28.38;53.85;101088.59;1769621;80;21478;-51
2022/08/20 04:13:53;;;;;;;8.43;7.00;;;;;;;28.38;53.80;101087.25;1778917;81;21077;-51
2022/08/20 04:16:21;;;;;;;7.87;6.50;;;;;;;28.37;53.88;101089.08;1779155;80;21526;-49
2022/08/20 04:18:47;;;;;;;9.03;5.97;;;;;;;28.37;53.83;101083.72;1779588;80;21031;-50
2022/08/20 04:21:14;;;;;;;10.85;6.60;;;;;;;28.38;53.79;101081.37;1779604;81;21075;-51
2022/08/20 04:23:41;;;;;;;7.08;6.22;;;;;;;28.40;53.92;101082.61;1779641;80;21479;-52
2022/08/20 04:26:08;;;;;;;11.55;6.62;;;;;;;28.40;53.90;101082.09;1779260;80;21066;-51
2022/08/20 04:28:35;;;;;;;8.80;6.78;;;;;;;28.41;53.83;101087.81;1779224;81;21011;-49
2022/08/20 04:31:02;;;;;;;9.13;6.70;;;;;;;28.41;53.75;101083.80;1779188;80;21024;-48
2022/08/20 04:33:29;;;;;;;7.85;6.53;;;;;;;28.41;53.84;101083.80;1769240;80;21054;-52
2022/08/20 04:35:59;;;;;;;8.58;6.78;;;;;;;28.42;53.90;101088.14;1778723;81;21581;-51
2022/08/20 04:38:26;;;;;;;9.20;6.70;;;;;;;28.42;53.88;101078.78;1751354;81;21011;-48
2022/08/20 04:40:53;;;;;;;8.75;6.80;;;;;;;28.43;53.79;101082.30;1779228;80;21488;-50
2022/08/20 04:43:22;;;;;;;9.05;6.42;;;;;;;28.44;53.79;101078.14;1779425;80;21022;-51
2022/08/20 04:45:50;;;;;;;7.80;6.95;;;;;;;28.45;53.64;101077.17;1779407;80;20998;-51
2022/08/20 04:48:18;;;;;;;8.35;6.70;;;;;;;28.45;53.50;101076.32;1779480;80;20983;-49
2022/08/20 04:50:45;;;;;;;10.85;6.80;;;;;;;28.44;53.47;101074.64;1778889;81;21026;-50
2022/08/20 04:53:16;;;;;;;9.70;7.10;;;;;;;28.44;53.51;101081.34;1779447;80;21541;-49
2022/08/20 04:55:43;;;;;;;8.18;6.67;;;;;;;28.43;53.49;101077.80;1779591;80;21006;-49
2022/08/20 04:58:18;;;;;;;9.93;7.00;;;;;;;28.43;53.54;101069.77;1779337;81;21507;-50
2022/08/20 05:00:50;;;;;;;10.55;7.03;;;;;;;28.44;53.60;101067.44;1682728;85;21585;-48
2022/08/20 05:03:17;;;;;;;8.68;6.70;;;;;;;28.44;53.50;101064.76;1682504;85;21575;-54
2022/08/20 05:05:45;;;;;;;8.78;6.10;;;;;;;28.44;53.63;101061.27;1682563;85;21049;-51
2022/08/20 05:08:12;;;;;;;10.25;6.75;;;;;;;28.45;53.63;101063.79;1669966;85;21051;-54
2022/08/20 05:10:39;;;;;;;8.05;7.03;;;;;;;28.45;53.57;101065.13;1682636;85;21027;-50
2022/08/20 05:13:07;;;;;;;9.15;7.00;;;;;;;28.45;53.62;101069.14;1682657;85;21066;-48
2022/08/20 05:15:35;;;;;;;9.58;6.70;;;;;;;28.44;53.67;101064.76;1682404;85;21063;-51
2022/08/20 05:18:04;;;;;;;7.60;6.78;;;;;;;28.46;53.60;101071.34;1682590;85;21059;-49
2022/08/20 05:20:33;;;;;;;10.18;7.22;;;;;;;28.47;53.61;101074.34;1682360;85;21102;-55
2022/08/20 05:23:02;;;;;;;12.20;6.67;;;;;;;28.46;53.64;101072.16;1682594;85;21004;-55
2022/08/20 05:25:28;;;;;;;6.95;6.30;;;;;;;28.48;53.70;101074.20;1682565;85;21126;-50
2022/08/20 05:27:59;;;;;;;8.43;7.08;;;;;;;28.50;53.66;101076.24;1682488;85;21547;-54
2022/08/20 05:30:32;;;;;;;10.08;7.00;;;;;;;28.49;53.71;101076.39;1682934;85;20971;-49
2022/08/20 05:32:56;;;;;;;7.92;6.42;;;;;;;28.52;53.59;101070.25;1661500;86;21118;-49
2022/08/20 05:35:22;;;;;;;9.05;6.85;;;;;;;28.52;53.56;101067.58;1661755;86;21542;-50
2022/08/20 05:37:49;;;;;;;8.60;7.60;;;;;;;28.56;53.61;101068.20;1661633;86;21161;-51
2022/08/20 05:40:16;;;;;;;7.45;6.55;;;;;;;28.63;53.53;101072.84;1661813;86;21042;-49
2022/08/20 05:42:43;;;;;;;6.80;6.15;;;;;;;28.69;53.35;101076.28;1661932;86;21527;-50
2022/08/20 05:45:10;;;;;;;9.20;6.95;;;;;;;28.75;53.18;101073.04;1661625;86;21090;-50
2022/08/20 05:47:39;;;;;;;8.00;6.75;;;;;;;28.77;53.16;101071.06;1656359;86;21062;-49
2022/08/20 05:50:08;;;;;;;10.85;6.65;;;;;;;28.74;53.20;101071.36;1662030;86;21026;-51
2022/08/20 05:52:34;;;;;;;11.43;6.45;;;;;;;28.85;52.89;101069.86;1660647;86;21066;-50
2022/08/20 05:55:01;;;;;;;11.05;6.92;;;;;;;28.89;52.69;101065.91;1661915;86;21586;-49
2022/08/20 05:57:28;;;;;;;8.95;6.75;;;;;;;28.92;52.49;101068.31;1699484;83;21034;-52
2022/08/20 05:59:55;;;;;;;11.00;6.95;;;;;;;28.97;52.36;101063.34;1731079;83;21074;-49
2022/08/20 06:05:08;;;;;;;9.73;6.92;;;;;;;29.09;52.05;101071.23;1735502;82;21038;-51
2022/08/20 06:07:34;;;;;;;7.50;6.53;;;;;;;29.21;51.87;101076.81;1753991;82;21010;-49
2022/08/20 06:10:01;;;;;;;7.95;6.58;;;;;;;29.31;51.84;101078.97;1754344;82;20958;-54
2022/08/20 06:12:28;;;;;;;7.65;7.03;;;;;;;29.42;51.63;101082.82;1753782;82;21034;-50
2022/08/20 06:14:55;;;;;;;7.50;6.67;;;;;;;29.54;51.25;101081.65;1754162;82;21498;-48
2022/08/20 06:17:21;;;;;;;7.90;6.80;;;;;;;29.63;50.90;101089.67;1744479;82;20995;-52
2022/08/20 06:19:48;;;;;;;8.80;6.80;;;;;;;29.71;50.88;101086.24;1716358;83;21030;-50
2022/08/20 06:22:15;;;;;;;11.88;6.97;;;;;;;29.78;50.87;101086.53;1753831;81;21034;-49
2022/08/20 06:24:42;;;;;;;14.80;7.62;;;;;;;29.89;50.79;101082.30;1753906;81;21025;-55
2022/08/20 06:27:12;;;;;;;9.30;6.67;;;;;;;30.00;50.36;101084.79;1754040;82;21010;-49
2022/08/20 06:29:39;;;;;;;7.67;6.87;;;;;;;30.11;50.10;101085.41;1750291;82;20998;-51
2022/08/20 06:32:06;;;;;;;10.45;7.83;;;;;;;30.19;49.90;101080.13;1752191;80;21590;-54
2022/08/20 06:34:33;;;;;;;7.40;6.62;;;;;;;30.25;49.68;101082.20;1747747;82;21519;-51
2022/08/20 06:36:59;;;;;;;8.15;6.62;;;;;;;30.28;49.74;101082.41;1747829;82;21015;-50
2022/08/20 06:39:27;;;;;;;9.75;7.45;;;;;;;30.34;49.75;101086.71;1747601;82;22571;-48
2022/08/20 06:41:57;;;;;;;8.10;6.42;;;;;;;30.37;49.57;101081.05;1747539;82;21034;-50
2022/08/20 06:44:23;;;;;;;7.87;7.03;;;;;;;30.40;49.46;101079.39;1747572;82;21066;-50
2022/08/20 06:46:49;;;;;;;11.33;7.20;;;;;;;30.44;49.38;101078.58;1747547;82;21519;-52
2022/08/20 06:49:16;;;;;;;7.85;6.90;;;;;;;30.49;49.60;101082.52;1747633;82;21023;-52
2022/08/20 06:51:43;;;;;;;8.20;7.40;;;;;;;30.51;49.89;101084.55;1747555;82;21035;-50
2022/08/20 06:54:11;;;;;;;9.98;7.92;;;;;;;30.53;49.98;101089.27;1747491;82;21503;-52
2022/08/20 06:56:37;;;;;;;8.08;7.33;;;;;;;30.57;50.04;101092.48;1748076;82;21011;-51
2022/08/20 06:59:04;;;;;;;10.00;8.23;;;;;;;30.60;49.90;101091.33;1747651;82;21023;-52
2022/08/20 07:01:31;;;;;;;12.15;7.58;;;;;;;30.60;49.85;101094.02;1747470;82;21527;-51
2022/08/20 07:03:58;;;;;;;7.92;7.12;;;;;;;30.64;49.52;101092.71;1747746;82;21054;-51
2022/08/20 07:06:25;;;;;;;7.45;6.75;;;;;;;30.67;49.55;101093.73;1747564;82;21042;-49
2022/08/20 07:08:54;;;;;;;8.78;7.47;;;;;;;30.70;49.69;101092.09;1729377;82;21030;-52
2022/08/20 07:11:20;;;;;;;8.75;7.85;;;;;;;30.74;49.82;101085.41;1747649;82;21002;-49
2022/08/20 07:13:48;;;;;;;10.75;7.30;;;;;;;30.78;49.55;101089.48;1748277;82;21492;-49
2022/08/20 07:16:15;;;;;;;10.20;7.35;;;;;;;30.80;49.36;101099.56;1747563;82;21058;-50
2022/08/20 07:18:42;;;;;;;9.55;7.78;;;;;;;30.82;49.50;101092.20;1747595;82;21019;-52
2022/08/20 07:21:10;;;;;;;9.23;7.37;;;;;;;30.84;49.40;101099.60;1747781;82;21090;-49
2022/08/20 07:23:37;;;;;;;7.85;7.03;;;;;;;30.85;49.48;101097.30;1747769;82;21027;-52
2022/08/20 07:26:06;;;;;;;8.50;7.40;;;;;;;30.92;49.50;101092.98;1747425;82;21034;-50
2022/08/20 07:28:33;;;;;;;7.95;7.15;;;;;;;31.01;49.33;101096.09;1730944;82;21039;-52
2022/08/20 07:33:45;;;;;;;9.40;7.15;;;;;;;31.27;48.62;101103.66;1747771;81;21074;-48
2022/08/20 07:36:12;;;;;;;9.18;8.18;;;;;;;31.40;48.50;101113.54;1747577;82;21022;-49
2022/08/20 07:38:39;;;;;;;8.10;7.33;;;;;;;31.49;48.11;101108.53;1747497;82;21058;-50
2022/08/20 07:41:12;;;;;;;8.38;7.58;;;;;;;31.57;47.62;101113.14;1747634;82;21503;-53
2022/08/20 07:43:38;;;;;;;10.65;8.60;;;;;;;31.61;47.47;101112.66;1747841;82;21499;-52
2022/08/20 07:46:08;;;;;;;10.35;8.08;;;;;;;31.64;47.25;101110.98;1747538;82;21027;-51
2022/08/20 07:48:38;;;;;;;8.68;7.72;;;;;;;31.63;47.19;101103.93;1747842;82;21094;-51
2022/08/20 07:51:06;;;;;;;8.65;7.85;;;;;;;31.61;47.10;101107.28;1747704;82;21015;-49
2022/08/20 07:53:34;;;;;;;13.13;8.10;;;;;;;31.58;47.32;101105.39;1747598;82;21063;-52
2022/08/20 07:56:05;;;;;;;7.90;7.10;;;;;;;31.56;47.24;101110.94;1747825;82;21095;-51
2022/08/20 07:58:34;;;;;;;8.23;7.40;;;;;;;31.56;47.43;101106.91;1747950;82;21058;-48
2022/08/20 08:01:01;;;;;;;10.65;7.60;;;;;;;31.56;47.47;101117.66;1739367;82;21019;-49
2022/08/20 08:03:28;;;;;;;8.58;7.45;;;;;;;31.55;47.71;101114.62;1747405;82;21023;-53
2022/08/20 08:05:55;;;;;;;8.63;7.30;;;;;;;31.55;47.81;101110.58;1747704;82;21663;-50
2022/08/20 08:08:24;;;;;;;8.70;7.53;;;;;;;31.54;47.82;101104.87;1747729;82;21030;-51
2022/08/20 08:10:54;;;;;;;8.70;7.70;;;;;;;31.56;47.89;101108.25;1738906;82;21566;-52
2022/08/20 08:13:26;;;;;;;9.70;7.62;;;;;;;31.57;47.90;101105.92;1744688;82;21011;-50
2022/08/20 08:15:56;;;;;;;8.18;7.47;;;;;;;31.60;47.90;101108.77;1747472;82;21554;-54
2022/08/20 08:18:26;;;;;;;8.03;7.33;;;;;;;31.64;47.83;101110.98;1747891;82;21051;-51
2022/08/20 08:20:53;;;;;;;11.88;8.15;;;;;;;31.66;47.83;101106.28;1747981;82;20998;-52
2022/08/20 08:23:21;;;;;;;10.10;7.90;;;;;;;31.70;47.80;101110.34;1747618;82;21039;-51
2022/08/20 08:25:50;;;;;;;8.43;7.62;;;;;;;31.74;47.63;101102.28;1747646;82;21005;-50
2022/08/20 08:28:18;;;;;;;9.95;8.03;;;;;;;31.78;47.36;101098.27;1748129;82;21034;-50
2022/08/20 08:30:45;;;;;;;8.78;7.90;;;;;;;31.82;47.19;101103.66;1747461;82;21015;-49
2022/08/20 08:33:27;;;;;;;10.23;8.45;;;;;;;31.85;47.22;101102.02;1751723;81;21549;-48
2022/08/20 08:36:02;;;;;;;8.53;7.67;;;;;;;31.86;47.32;101102.33;1744605;80;21065;-50
2022/08/20 08:38:33;;;;;;;9.13;8.23;;;;;;;31.89;47.46;101104.72;1687944;84;21006;-50
2022/08/20 08:41:16;;;;;;;;;;;;;;;31.91;47.40;101102.70;1688545;84;21136;-52
2022/08/20 08:43:48;;;;;;;9.23;7.95;;;;;;;31.95;47.27;101109.48;1683466;84;20130;-52
2022/08/20 08:46:21;;;;;;;9.28;8.20;;;;;;;31.97;47.10;101110.16;1688010;84;21069;-49
2022/08/20 08:48:47;;;;;;;8.85;7.95;;;;;;;32.00;47.16;101108.51;1684418;84;21002;-51
2022/08/20 08:51:17;;;;;;;10.75;7.92;;;;;;;32.02;46.68;101105.15;1690692;84;21026;-50
2022/08/20 08:53:52;;;;;;;8.58;7.75;;;;;;;32.06;46.26;101109.20;1690801;84;21041;-48
2022/08/20 08:56:19;;;;;;;9.38;7.60;;;;;;;32.09;46.48;101100.78;1690846;84;21077;-50
2022/08/20 08:58:46;;;;;;;10.18;8.00;;;;;;;32.15;46.66;101103.84;1689559;84;21057;-48
2022/08/20 09:01:17;;;;;;;8.73;7.90;;;;;;;32.19;46.25;101097.94;1676871;84;21069;-50
2022/08/20 09:03:46;;;;;;;9.38;8.50;;;;;;;32.23;45.72;101090.39;1689753;84;21530;-51
2022/08/20 09:06:16;;;;;;;9.18;8.38;;;;;;;32.26;45.05;101091.39;1690528;84;21510;-52
2022/08/20 09:08:52;;;;;;;10.03;8.23;;;;;;;32.27;45.17;101087.71;1690867;84;21014;-50
2022/08/20 09:11:21;;;;;;;9.85;8.25;;;;;;;32.30;45.38;101083.33;1691503;84;21093;-48
2022/08/20 09:13:48;;;;;;;9.20;8.33;;;;;;;32.31;45.04;101083.19;1694660;84;21084;-51
2022/08/20 09:16:15;;;;;;;10.20;8.18;;;;;;;32.33;45.11;101080.31;1699969;84;21040;-49
2022/08/20 09:18:42;;;;;;;8.83;7.83;;;;;;;32.38;44.98;101081.99;1696513;84;21006;-50
2022/08/20 09:21:09;;;;;;;11.20;9.80;;;;;;;32.41;44.92;101085.71;1697195;84;21046;-54
2022/08/20 09:23:37;;;;;;;9.38;7.90;;;;;;;32.43;44.60;101086.39;1695100;84;21026;-52
2022/08/20 09:26:04;;;;;;;9.20;8.30;;;;;;;32.45;44.82;101089.76;1693852;84;21081;-50
2022/08/20 09:28:30;;;;;;;8.75;7.90;;;;;;;32.47;45.10;101085.08;1696844;84;21081;-49
2022/08/20 09:30:57;;;;;;;8.73;7.92;;;;;;;32.49;45.50;101083.06;1692346;84;21042;-54
2022/08/20 09:33:24;;;;;;;9.33;8.53;;;;;;;32.51;45.80;101085.08;1689218;84;21100;-50
2022/08/20 09:35:51;;;;;;;9.58;8.68;;;;;;;32.53;45.75;101087.11;1733277;81;21554;-50
2022/08/20 09:38:17;;;;;;;10.55;8.03;;;;;;;32.54;45.47;101092.32;1743585;82;21026;-49
2022/08/20 09:40:44;;;;;;;9.28;8.40;;;;;;;32.58;45.44;101092.85;1743100;81;21048;-50
2022/08/20 09:43:11;;;;;;;8.95;8.13;;;;;;;32.58;45.34;101092.85;1743152;82;21034;-48
2022/08/20 09:45:37;;;;;;;12.82;8.55;;;;;;;32.59;45.44;101093.17;1742155;81;21574;-53
2022/08/20 09:48:05;;;;;;;8.85;8.05;;;;;;;32.60;45.03;101082.75;1740126;82;21057;-48
2022/08/20 09:50:33;;;;;;;8.85;8.13;;;;;;;32.63;45.16;101087.78;1740389;81;20994;-53
2022/08/20 09:53:01;;;;;;;9.03;7.92;;;;;;;32.64;44.92;101085.45;1742531;81;21085;-52
2022/08/20 09:55:38;;;;;;;8.45;7.65;;;;;;;32.67;44.93;101079.20;1741932;81;21061;-52
2022/08/20 09:58:19;;;;;;;9.70;7.67;;;;;;;32.71;44.94;101081.05;1658988;86;21049;-50
2022/08/20 10:00:46;;;;;;;8.48;7.50;;;;;;;32.75;44.63;101079.20;1659187;86;21109;-52
2022/08/20 10:03:13;;;;;;;8.53;7.83;;;;;;;32.79;44.33;101079.70;1654714;86;21608;-53
2022/08/20 10:05:39;;;;;;;10.53;7.67;;;;;;;32.81;44.34;101079.88;1657071;86;21113;-57
2022/08/20 10:08:07;;;;;;;7.95;7.25;;;;;;;32.82;44.32;101073.98;1652849;86;21053;-49
2022/08/20 10:10:34;;;;;;;8.15;7.45;;;;;;;32.83;44.21;101072.96;1649211;86;21042;-51
2022/08/20 10:13:01;;;;;;;10.30;8.45;;;;;;;32.84;44.30;101071.97;1648580;86;21049;-49
2022/08/20 10:15:29;;;;;;;11.10;7.70;;;;;;;32.87;44.46;101072.99;1649401;86;21670;-53
2022/08/20 10:17:58;;;;;;;10.08;8.05;;;;;;;32.91;44.33;101066.75;1647001;86;21087;-50
2022/08/20 10:20:25;;;;;;;10.38;7.50;;;;;;;32.91;44.26;101070.30;1650846;86;21062;-49
2022/08/20 10:22:52;;;;;;;9.28;7.72;;;;;;;32.93;44.43;101072.31;1649740;86;21054;-53
2022/08/20 10:25:19;;;;;;;8.45;7.75;;;;;;;32.96;44.41;101074.65;1647710;86;21085;-52
2022/08/20 10:27:47;;;;;;;8.65;7.75;;;;;;;33.00;44.32;101067.94;1648186;86;21091;-49
2022/08/20 10:30:14;;;;;;;8.58;7.67;;;;;;;33.04;44.59;101067.08;1642772;86;21085;-49
2022/08/20 10:32:41;;;;;;;8.03;6.87;;;;;;;33.05;44.44;101064.23;1644484;86;21066;-51
2022/08/20 10:35:08;;;;;;;7.83;7.03;;;;;;;33.08;44.44;101062.53;1630154;86;21566;-52
2022/08/20 10:37:35;;;;;;;7.50;6.75;;;;;;;33.08;44.35;101061.19;1638429;86;21551;-49
2022/08/20 10:40:04;;;;;;;7.83;7.05;;;;;;;33.09;44.40;101064.23;1653769;86;21034;-49
2022/08/20 10:42:31;;;;;;;8.53;7.58;;;;;;;33.10;44.69;101061.03;1654556;86;21583;-49
2022/08/20 10:44:57;;;;;;;8.20;7.50;;;;;;;33.13;44.53;101059.33;1654712;86;21601;-51
2022/08/20 10:47:30;;;;;;;8.48;7.62;;;;;;;33.17;44.64;101065.56;1647383;87;21047;-49
2022/08/20 10:49:58;;;;;;;6.87;6.25;;;;;;;33.19;44.54;101064.89;1659444;86;21080;-49
2022/08/20 10:52:25;;;;;;;9.05;8.18;;;;;;;33.23;44.72;101059.48;1624939;88;21085;-49
2022/08/20 10:54:52;;;;;;;8.38;7.58;;;;;;;33.26;44.73;101057.77;1671112;83;21049;-52
2022/08/20 10:57:27;;;;;;;8.48;7.62;;;;;;;33.29;44.27;101057.94;1692658;85;21023;-51
2022/08/20 10:59:56;;;;;;;7.30;6.60;;;;;;;33.28;44.47;101057.13;1730114;82;21086;-51
2022/08/20 11:02:24;;;;;;;7.47;6.80;;;;;;;33.30;44.47;101057.79;1747914;82;21613;-52
2022/08/20 11:04:51;;;;;;;8.05;7.15;;;;;;;33.34;44.46;101060.48;1753670;82;21077;-52
2022/08/20 11:07:29;;;;;;;8.25;7.15;;;;;;;33.36;44.27;101058.45;1749485;82;21046;-51
2022/08/20 11:09:56;;;;;;;7.95;7.20;;;;;;;33.39;44.32;101055.89;1714709;83;21115;-49
2022/08/20 11:12:23;;;;;;;7.05;6.42;;;;;;;33.42;43.99;101055.55;1716569;83;21563;-52
2022/08/20 11:14:50;;;;;;;8.25;7.37;;;;;;;33.43;43.63;101054.02;1716797;83;21545;-51
2022/08/20 11:17:23;;;;;;;7.70;7.00;;;;;;;33.44;43.75;101046.28;1654125;86;21079;-49
2022/08/20 11:19:50;;;;;;;13.53;7.30;;;;;;;33.45;43.71;101045.25;1701647;83;21534;-50
2022/08/20 11:22:17;;;;;;;8.85;7.28;;;;;;;33.45;43.91;101045.25;1702105;83;21445;-49
2022/08/20 11:24:44;;;;;;;9.60;7.65;;;;;;;33.45;43.57;101045.25;1702297;83;21163;-50
2022/08/20 11:27:22;;;;;;;8.18;7.45;;;;;;;33.46;43.59;101033.95;1711877;83;21020;-48
2022/08/20 11:29:49;;;;;;;7.12;6.53;;;;;;;33.45;43.20;101039.85;1694560;83;21515;-51
2022/08/20 11:32:16;;;;;;;7.60;6.85;;;;;;;33.42;42.92;101037.52;1689826;83;21068;-50
2022/08/20 11:34:42;;;;;;;7.92;7.12;;;;;;;33.42;42.93;101035.32;1710766;83;21584;-50
2022/08/20 11:37:10;;;;;;;7.03;6.42;;;;;;;33.38;42.67;101030.79;1714441;83;21109;-52
2022/08/20 11:39:36;;;;;;;7.67;6.97;;;;;;;33.36;42.96;101032.81;1690695;83;21530;-55